createdAt,value
2023-05-11T00:02:15.225Z,8.80
2023-05-11T00:04:42.767Z,10.40
2023-05-11T00:07:09.996Z,10.32
2023-05-11T00:09:38.522Z,9.88
2023-05-11T00:12:06.228Z,14.23
2023-05-11T00:14:33.416Z,11.73
2023-05-11T00:17:00.540Z,10.35
2023-05-11T00:19:28.132Z,11.73
2023-05-11T00:21:55.392Z,15.18
2023-05-11T00:24:22.450Z,13.93
2023-05-11T00:26:49.609Z,12.88
2023-05-11T00:29:16.837Z,17.27
2023-05-11T00:31:48.182Z,13.40
2023-05-11T00:34:16.568Z,13.65
2023-05-11T00:36:43.702Z,15.70
2023-05-11T00:39:12.617Z,16.23
2023-05-11T00:41:39.861Z,12.68
2023-05-11T00:44:07.035Z,15.05
2023-05-11T00:46:34.192Z,14.60
2023-05-11T00:49:01.445Z,13.60
2023-05-11T00:51:28.498Z,15.27
2023-05-11T00:53:55.947Z,12.75
2023-05-11T00:56:23.298Z,15.75
2023-05-11T00:58:50.494Z,15.18
2023-05-11T01:01:18.777Z,12.25
2023-05-11T01:03:46.544Z,12.98
2023-05-11T01:06:28.150Z,14.20
2023-05-11T01:09:06.598Z,16.00
2023-05-11T01:11:47.364Z,14.60
2023-05-11T01:14:23.540Z,14.02
2023-05-11T01:16:54.154Z,13.43
2023-05-11T01:19:56.835Z,11.77
2023-05-11T01:22:52.130Z,11.88
2023-05-11T01:25:44.417Z,15.25
2023-05-11T01:28:50.474Z,13.13
2023-05-11T01:31:18.172Z,14.73
2023-05-11T01:33:58.365Z,11.02
2023-05-11T01:36:29.241Z,12.32
2023-05-11T01:38:58.280Z,15.43
2023-05-11T01:41:26.517Z,12.88
2023-05-11T01:43:54.891Z,10.82
2023-05-11T01:46:22.865Z,12.68
2023-05-11T01:48:51.539Z,12.10
2023-05-11T01:51:20.912Z,12.50
2023-05-11T01:53:48.011Z,12.68
2023-05-11T01:56:15.185Z,14.90
2023-05-11T01:58:42.520Z,12.32
2023-05-11T02:01:09.947Z,13.70
2023-05-11T02:03:37.445Z,11.98
2023-05-11T02:06:05.398Z,14.93
2023-05-11T02:08:34.006Z,14.20
2023-05-11T02:11:01.393Z,15.50
2023-05-11T02:13:29.184Z,13.40
2023-05-11T02:15:56.978Z,16.77
2023-05-11T02:18:24.368Z,16.58
2023-05-11T02:20:59.415Z,17.10
2023-05-11T02:23:27.816Z,14.02
2023-05-11T02:25:55.329Z,19.52
2023-05-11T02:28:22.939Z,14.15
2023-05-11T02:30:52.442Z,13.98
2023-05-11T02:33:31.809Z,15.82
2023-05-11T02:35:59.079Z,15.52
2023-05-11T02:38:33.684Z,15.20
2023-05-11T02:41:07.431Z,14.05
2023-05-11T02:43:37.201Z,13.35
2023-05-11T02:46:07.104Z,12.13
2023-05-11T02:48:43.119Z,11.50
2023-05-11T02:51:11.417Z,14.75
2023-05-11T02:53:45.529Z,14.95
2023-05-11T02:56:12.775Z,17.63
2023-05-11T02:58:39.902Z,16.23
2023-05-11T03:01:27.968Z,19.30
2023-05-11T03:03:57.302Z,13.35
2023-05-11T03:06:26.409Z,16.10
2023-05-11T03:08:53.654Z,13.85
2023-05-11T03:11:21.250Z,16.00
2023-05-11T03:13:50.185Z,14.52
2023-05-11T03:16:21.017Z,15.00
2023-05-11T03:18:49.500Z,14.15
2023-05-11T03:21:18.649Z,16.23
2023-05-11T03:23:46.108Z,15.00
2023-05-11T03:26:14.826Z,16.15
2023-05-11T03:28:41.989Z,17.27
2023-05-11T03:31:09.164Z,14.77
2023-05-11T03:33:36.396Z,13.98
2023-05-11T03:36:06.153Z,13.48
2023-05-11T03:38:34.385Z,12.75
2023-05-11T03:41:01.763Z,12.88
2023-05-11T03:43:32.016Z,9.35
2023-05-11T03:45:59.343Z,14.88
2023-05-11T03:48:26.959Z,11.52
2023-05-11T03:50:54.044Z,15.05
2023-05-11T03:53:21.220Z,11.70
2023-05-11T03:55:50.090Z,11.40
2023-05-11T03:58:17.329Z,11.65
2023-05-11T04:00:44.472Z,11.68
2023-05-11T04:03:12.434Z,12.52
2023-05-11T04:05:39.777Z,14.43
2023-05-11T04:08:09.624Z,12.20
2023-05-11T04:10:38.287Z,13.20
2023-05-11T04:13:05.614Z,11.93
2023-05-11T04:15:32.813Z,11.48
2023-05-11T04:17:59.929Z,9.95
2023-05-11T04:20:27.196Z,14.18
2023-05-11T04:22:54.750Z,15.68
2023-05-11T04:25:21.988Z,20.75
2023-05-11T04:27:49.164Z,13.35
2023-05-11T04:30:16.647Z,15.55
2023-05-11T04:32:44.033Z,13.73
2023-05-11T04:35:11.400Z,19.83
2023-05-11T04:37:39.793Z,17.88
2023-05-11T04:40:09.338Z,16.42
2023-05-11T04:42:41.432Z,16.15
2023-05-11T04:45:17.715Z,15.48
2023-05-11T04:47:45.356Z,18.27
2023-05-11T04:50:13.379Z,16.05
2023-05-11T04:52:40.567Z,16.48
2023-05-11T04:55:08.610Z,16.85
2023-05-11T04:57:35.825Z,18.42
2023-05-11T05:00:07.226Z,22.48
2023-05-11T05:02:35.743Z,20.90
2023-05-11T05:05:03.244Z,25.10
2023-05-11T05:07:32.116Z,22.17
2023-05-11T05:09:59.303Z,22.50
2023-05-11T05:12:26.525Z,23.17
2023-05-11T05:14:53.725Z,22.60
2023-05-11T05:17:21.008Z,18.02
2023-05-11T05:19:48.168Z,27.30
2023-05-11T05:22:15.940Z,30.00
2023-05-11T05:24:43.102Z,31.17
2023-05-11T05:27:10.628Z,22.50
2023-05-11T05:29:38.168Z,21.98
2023-05-11T05:32:06.061Z,18.00
2023-05-11T05:34:33.277Z,16.73
2023-05-11T05:37:00.634Z,17.58
2023-05-11T05:39:27.836Z,17.08
2023-05-11T05:41:55.013Z,18.40
2023-05-11T05:44:22.926Z,21.00
2023-05-11T05:46:50.107Z,20.48
2023-05-11T05:49:18.036Z,19.55
2023-05-11T05:51:45.531Z,21.58
2023-05-11T05:54:13.494Z,23.52
2023-05-11T05:56:41.140Z,17.92
2023-05-11T05:59:09.285Z,20.00
2023-05-11T06:01:36.763Z,15.90
2023-05-11T06:04:04.057Z,20.27
2023-05-11T06:06:32.294Z,15.18
2023-05-11T06:08:59.370Z,18.08
2023-05-11T06:11:27.421Z,15.93
2023-05-11T06:13:54.821Z,10.23
2023-05-11T06:16:21.926Z,14.88
2023-05-11T06:18:49.084Z,9.32
2023-05-11T06:21:16.356Z,9.52
2023-05-11T06:23:43.809Z,8.85
2023-05-11T06:26:11.995Z,8.57
2023-05-11T06:28:39.909Z,5.13
2023-05-11T06:31:11.637Z,4.97
2023-05-11T06:33:40.722Z,4.82
2023-05-11T06:36:12.945Z,7.72
2023-05-11T06:38:40.040Z,6.90
2023-05-11T06:41:11.343Z,7.55
2023-05-11T06:43:38.617Z,7.10
2023-05-11T06:46:17.811Z,5.63
2023-05-11T06:48:45.299Z,7.15
2023-05-11T06:51:12.673Z,6.72
2023-05-11T06:53:39.866Z,8.48
2023-05-11T06:56:07.827Z,10.45
2023-05-11T06:58:35.356Z,8.73
2023-05-11T07:01:05.439Z,25.63
2023-05-11T07:03:32.626Z,59.85
2023-05-11T07:05:59.943Z,20.40
2023-05-11T07:08:27.115Z,41.88
2023-05-11T07:10:54.327Z,37.08
2023-05-11T07:13:21.627Z,75.60
2023-05-11T07:15:49.844Z,22.90
2023-05-11T07:18:17.651Z,23.60
2023-05-11T07:20:46.928Z,23.95
2023-05-11T07:23:14.144Z,21.80
2023-05-11T07:25:41.350Z,11.68
2023-05-11T07:28:08.513Z,25.52
2023-05-11T07:30:35.757Z,11.00
2023-05-11T07:33:03.361Z,6.63
2023-05-11T07:35:31.266Z,6.13
2023-05-11T07:37:58.401Z,9.40
2023-05-11T07:40:25.801Z,9.23
2023-05-11T07:42:54.163Z,5.50
2023-05-11T07:45:21.575Z,4.13
2023-05-11T07:47:49.011Z,4.85
2023-05-11T07:50:17.253Z,5.10
2023-05-11T07:52:44.430Z,4.03
2023-05-11T07:55:11.737Z,3.97
2023-05-11T07:57:38.864Z,4.22
2023-05-11T08:00:07.467Z,3.58
2023-05-11T08:02:39.226Z,4.30
2023-05-11T08:05:07.309Z,3.80
2023-05-11T08:07:34.613Z,3.30
2023-05-11T08:10:01.762Z,6.03
2023-05-11T08:12:29.559Z,4.18
2023-05-11T08:14:56.818Z,3.80
2023-05-11T08:17:23.957Z,4.50
2023-05-11T08:19:51.851Z,7.38
2023-05-11T08:22:19.130Z,7.13
2023-05-11T08:24:47.031Z,5.03
2023-05-11T08:27:15.323Z,6.85
2023-05-11T08:29:42.512Z,32.75
2023-05-11T08:32:09.743Z,19.67
2023-05-11T08:34:37.016Z,9.77
2023-05-11T08:37:04.523Z,7.18
2023-05-11T08:42:07.233Z,9.05
2023-05-11T08:44:35.373Z,7.47
2023-05-11T08:47:20.925Z,8.77
2023-05-11T08:49:51.139Z,4.07
2023-05-11T08:52:18.466Z,5.03
2023-05-11T08:54:46.800Z,6.50
2023-05-11T08:57:14.171Z,6.43
2023-05-11T08:59:42.290Z,5.53
2023-05-11T09:02:10.861Z,7.00
2023-05-11T09:04:38.200Z,6.97
2023-05-11T09:07:05.428Z,8.25
2023-05-11T09:09:32.786Z,6.38
2023-05-11T09:12:00.228Z,8.07
2023-05-11T09:14:27.921Z,18.33
2023-05-11T09:16:55.157Z,7.30
2023-05-11T09:19:22.505Z,5.78
2023-05-11T09:21:49.794Z,9.27
2023-05-11T09:24:17.075Z,8.68
2023-05-11T09:26:44.234Z,6.60
2023-05-11T09:29:11.794Z,11.18
2023-05-11T09:31:46.704Z,5.28
2023-05-11T09:34:21.709Z,4.25
2023-05-11T09:36:50.938Z,6.35
2023-05-11T09:39:35.117Z,4.13
2023-05-11T09:42:18.291Z,3.80
2023-05-11T09:44:46.157Z,5.18
2023-05-11T09:47:17.702Z,6.25
2023-05-11T09:49:45.622Z,3.80
2023-05-11T09:52:16.991Z,6.13
2023-05-11T09:54:45.452Z,4.13
2023-05-11T09:57:27.024Z,6.72
2023-05-11T09:59:56.525Z,6.65
2023-05-11T10:02:31.049Z,6.03
2023-05-11T10:04:59.845Z,4.32
2023-05-11T10:07:31.828Z,5.32
2023-05-11T10:10:01.614Z,6.15
2023-05-11T10:12:30.634Z,3.30
2023-05-11T10:15:06.918Z,4.28
2023-05-11T10:17:37.690Z,5.03
2023-05-11T10:20:06.214Z,4.75
2023-05-11T10:22:36.261Z,4.60
2023-05-11T10:25:06.102Z,7.68
2023-05-11T10:27:33.355Z,4.13
2023-05-11T10:30:00.449Z,6.75
2023-05-11T10:32:27.820Z,12.68
2023-05-11T10:34:55.155Z,18.75
2023-05-11T10:37:22.241Z,7.28
2023-05-11T10:39:50.652Z,9.05
2023-05-11T10:42:24.226Z,3.40
2023-05-11T10:45:15.680Z,4.32
2023-05-11T10:47:58.376Z,3.55
2023-05-11T10:50:37.695Z,4.10
2023-05-11T10:53:26.057Z,4.90
2023-05-11T10:55:56.279Z,4.65
2023-05-11T10:58:36.549Z,4.75
2023-05-11T11:01:38.300Z,7.35
2023-05-11T11:04:07.122Z,5.03
2023-05-11T11:06:35.135Z,4.90
2023-05-11T11:09:08.000Z,3.38
2023-05-11T11:11:39.813Z,3.40
2023-05-11T11:14:09.543Z,3.40
2023-05-11T11:16:37.376Z,2.80
2023-05-11T11:19:32.869Z,2.60
2023-05-11T11:22:01.195Z,2.97
2023-05-11T11:24:37.617Z,2.60
2023-05-11T11:27:08.700Z,2.60
2023-05-11T11:29:36.230Z,5.80
2023-05-11T11:32:21.880Z,4.78
2023-05-11T11:34:49.604Z,3.88
2023-05-11T11:37:17.432Z,2.55
2023-05-11T11:39:44.906Z,2.40
2023-05-11T11:42:18.579Z,2.53
2023-05-11T11:44:45.986Z,3.72
2023-05-11T11:47:22.769Z,3.85
2023-05-11T11:49:53.884Z,4.43
2023-05-11T11:52:27.122Z,12.02
2023-05-11T11:54:56.071Z,14.90
2023-05-11T11:57:32.694Z,16.77
2023-05-11T12:00:05.857Z,13.70
2023-05-11T12:02:43.258Z,4.80
2023-05-11T12:05:13.036Z,3.95
2023-05-11T12:07:42.163Z,3.63
2023-05-11T12:10:12.231Z,6.05
2023-05-11T12:12:39.976Z,3.72
2023-05-11T12:15:07.972Z,4.78
2023-05-11T12:17:38.137Z,4.45
2023-05-11T12:20:15.345Z,9.25
2023-05-11T12:22:42.725Z,7.13
2023-05-11T12:25:11.487Z,7.40
2023-05-11T12:27:48.833Z,41.50
2023-05-11T12:30:26.364Z,21.13
2023-05-11T12:35:25.353Z,8.02
2023-05-11T12:37:52.767Z,4.78
2023-05-11T12:40:20.325Z,9.13
2023-05-11T12:42:57.502Z,3.63
2023-05-11T12:45:25.677Z,4.40
2023-05-11T12:47:55.149Z,3.28
2023-05-11T12:50:22.817Z,3.78
2023-05-11T12:52:50.597Z,5.63
2023-05-11T12:55:30.634Z,4.30
2023-05-11T12:58:08.032Z,6.10
2023-05-11T13:00:35.424Z,6.70
2023-05-11T13:03:02.729Z,5.45
2023-05-11T13:05:30.623Z,5.50
2023-05-11T13:08:02.189Z,3.70
2023-05-11T13:10:29.462Z,4.15
2023-05-11T13:12:56.701Z,10.73
2023-05-11T13:15:24.576Z,7.43
2023-05-11T13:17:59.267Z,4.30
2023-05-11T13:20:31.099Z,5.32
2023-05-11T13:23:11.830Z,3.17
2023-05-11T13:25:51.728Z,5.60
2023-05-11T13:28:20.723Z,3.50
2023-05-11T13:30:48.920Z,5.70
2023-05-11T13:33:16.279Z,3.45
2023-05-11T13:35:43.549Z,5.53
2023-05-11T13:38:13.942Z,6.20
2023-05-11T13:40:41.317Z,6.78
2023-05-11T13:43:08.562Z,5.78
2023-05-11T13:45:36.670Z,7.13
2023-05-11T13:48:04.240Z,5.22
2023-05-11T13:50:32.368Z,8.68
2023-05-11T13:52:59.526Z,3.88
2023-05-11T13:55:26.859Z,2.97
2023-05-11T13:57:54.025Z,2.53
2023-05-11T14:00:21.533Z,3.97
2023-05-11T14:02:50.710Z,2.47
2023-05-11T14:05:18.407Z,2.33
2023-05-11T14:07:48.413Z,5.35
2023-05-11T14:10:17.169Z,3.25
2023-05-11T14:12:44.790Z,4.18
2023-05-11T14:15:12.108Z,4.35
2023-05-11T14:17:41.722Z,3.75
2023-05-11T14:20:09.730Z,4.15
2023-05-11T14:22:36.913Z,4.90
2023-05-11T14:25:04.366Z,2.30
2023-05-11T14:27:31.800Z,2.58
2023-05-11T14:29:58.933Z,2.38
2023-05-11T14:32:27.037Z,3.60
2023-05-11T14:34:54.266Z,6.47
2023-05-11T14:37:21.389Z,3.63
2023-05-11T14:39:48.659Z,4.25
2023-05-11T14:42:15.806Z,3.63
2023-05-11T14:44:42.961Z,5.13
2023-05-11T14:47:10.013Z,3.60
2023-05-11T14:49:37.153Z,6.10
2023-05-11T14:52:04.609Z,5.25
2023-05-11T14:54:31.783Z,9.57
2023-05-11T14:56:59.655Z,9.45
2023-05-11T14:59:27.054Z,5.15
2023-05-11T15:01:54.323Z,3.03
2023-05-11T15:04:22.353Z,3.15
2023-05-11T15:06:49.636Z,2.92
2023-05-11T15:09:16.998Z,3.38
2023-05-11T15:11:44.317Z,4.25
2023-05-11T15:14:11.557Z,6.30
2023-05-11T15:16:38.710Z,5.32
2023-05-11T15:19:06.354Z,4.28
2023-05-11T15:21:33.679Z,4.50
2023-05-11T15:24:01.097Z,5.45
2023-05-11T15:26:28.293Z,4.35
2023-05-11T15:28:55.561Z,4.13
2023-05-11T15:31:22.698Z,2.90
2023-05-11T15:33:50.118Z,30.15
2023-05-11T15:36:17.190Z,38.90
2023-05-11T15:38:45.400Z,152.45
2023-05-11T15:41:12.709Z,70.82
2023-05-11T15:43:39.812Z,55.67
2023-05-11T15:46:07.699Z,11.35
2023-05-11T15:48:35.052Z,4.90
2023-05-11T15:51:02.888Z,10.05
2023-05-11T15:53:30.087Z,6.88
2023-05-11T15:55:57.377Z,6.85
2023-05-11T15:58:24.716Z,7.97
2023-05-11T16:00:52.138Z,13.32
2023-05-11T16:03:19.951Z,7.07
2023-05-11T16:05:47.527Z,9.65
2023-05-11T16:08:14.952Z,7.53
2023-05-11T16:10:42.078Z,8.02
2023-05-11T16:13:09.850Z,7.05
2023-05-11T16:15:37.150Z,6.85
2023-05-11T16:18:05.295Z,4.80
2023-05-11T16:20:32.852Z,4.32
2023-05-11T16:23:00.059Z,6.90
2023-05-11T16:25:27.340Z,8.20
2023-05-11T16:27:54.390Z,6.80
2023-05-11T16:30:25.360Z,6.75
2023-05-11T16:32:53.850Z,8.90
2023-05-11T16:35:21.455Z,5.70
2023-05-11T16:37:48.801Z,5.65
2023-05-11T16:40:19.189Z,7.93
2023-05-11T16:42:48.647Z,7.85
2023-05-11T16:45:16.635Z,7.88
2023-05-11T16:47:46.763Z,11.10
2023-05-11T16:50:16.266Z,9.98
2023-05-11T16:52:43.792Z,10.25
2023-05-11T16:55:11.603Z,10.68
2023-05-11T16:57:38.830Z,12.02
2023-05-11T17:00:06.790Z,11.88
2023-05-11T17:02:34.329Z,11.30
2023-05-11T17:05:01.613Z,12.38
2023-05-11T17:07:29.205Z,11.00
2023-05-11T17:09:57.290Z,10.63
2023-05-11T17:12:24.632Z,10.80
2023-05-11T17:14:51.893Z,14.00
2023-05-11T17:17:19.091Z,12.15
2023-05-11T17:19:46.483Z,9.85
2023-05-11T17:22:14.032Z,7.10
2023-05-11T17:24:41.229Z,7.35
2023-05-11T17:27:08.371Z,7.60
2023-05-11T17:29:35.492Z,6.32
2023-05-11T17:32:03.453Z,6.22
2023-05-11T17:34:31.237Z,6.07
2023-05-11T17:36:58.602Z,7.40
2023-05-11T17:39:25.712Z,5.93
2023-05-11T17:41:53.294Z,6.75
2023-05-11T17:44:21.369Z,7.80
2023-05-11T17:46:49.495Z,8.43
2023-05-11T17:49:26.997Z,9.60
2023-05-11T17:51:54.384Z,13.77
2023-05-11T17:54:21.583Z,15.95
2023-05-11T17:56:49.052Z,20.02
2023-05-11T17:59:16.560Z,17.20
2023-05-11T18:01:43.689Z,17.20
2023-05-11T18:04:10.993Z,13.02
2023-05-11T18:06:38.311Z,11.07
2023-05-11T18:09:06.045Z,8.88
2023-05-11T18:11:33.182Z,7.25
2023-05-11T18:14:00.372Z,7.78
2023-05-11T18:16:27.844Z,5.93
2023-05-11T18:18:55.394Z,6.10
2023-05-11T18:21:22.685Z,5.63
2023-05-11T18:23:50.240Z,5.05
2023-05-11T18:26:19.289Z,5.85
2023-05-11T18:28:46.563Z,5.18
2023-05-11T18:31:13.915Z,7.78
2023-05-11T18:33:41.167Z,4.95
2023-05-11T18:36:08.402Z,6.18
2023-05-11T18:38:35.667Z,6.28
2023-05-11T18:41:08.434Z,7.93
2023-05-11T18:43:35.791Z,12.00
2023-05-11T18:46:07.676Z,11.77
2023-05-11T18:48:35.164Z,18.98
2023-05-11T18:51:06.064Z,15.25
2023-05-11T18:53:33.603Z,16.13
2023-05-11T18:56:00.842Z,16.02
2023-05-11T18:58:31.445Z,16.98
2023-05-11T19:01:02.239Z,13.55
2023-05-11T19:03:32.385Z,11.45
2023-05-11T19:06:00.955Z,13.27
2023-05-11T19:08:28.951Z,12.57
2023-05-11T19:10:56.170Z,13.63
2023-05-11T19:13:23.450Z,16.35
2023-05-11T19:15:50.590Z,12.93
2023-05-11T19:18:17.926Z,12.85
2023-05-11T19:20:45.207Z,13.52
2023-05-11T19:23:12.379Z,11.93
2023-05-11T19:25:40.368Z,11.32
2023-05-11T19:28:07.550Z,11.07
2023-05-11T19:30:34.889Z,11.98
2023-05-11T19:33:02.353Z,11.90
2023-05-11T19:35:30.116Z,13.27
2023-05-11T19:37:57.249Z,9.48
2023-05-11T19:42:55.563Z,10.30
2023-05-11T19:45:22.794Z,8.15
2023-05-11T19:47:49.937Z,8.38
2023-05-11T19:50:20.436Z,7.15
2023-05-11T19:52:49.158Z,6.97
2023-05-11T19:55:16.334Z,10.00
2023-05-11T19:57:43.556Z,6.93
2023-05-11T20:00:11.802Z,8.75
2023-05-11T20:02:39.191Z,6.63
2023-05-11T20:05:07.571Z,6.95
2023-05-11T20:07:39.227Z,7.00
2023-05-11T20:10:11.052Z,6.57
2023-05-11T20:12:38.457Z,7.47
2023-05-11T20:15:07.169Z,6.30
2023-05-11T20:17:35.545Z,6.95
2023-05-11T20:20:04.380Z,7.40
2023-05-11T20:22:33.452Z,7.30
2023-05-11T20:25:00.617Z,7.57
2023-05-11T20:27:27.689Z,10.35
2023-05-11T20:29:55.051Z,7.00
2023-05-11T20:32:22.526Z,8.57
2023-05-11T20:34:53.034Z,6.75
2023-05-11T20:37:20.237Z,8.77
2023-05-11T20:39:47.455Z,9.00
2023-05-11T20:42:14.603Z,6.97
2023-05-11T20:44:41.847Z,7.82
2023-05-11T20:47:09.167Z,8.07
2023-05-11T20:49:39.277Z,8.82
2023-05-11T20:52:07.804Z,7.07
2023-05-11T20:54:35.895Z,8.65
2023-05-11T20:57:08.307Z,7.65
2023-05-11T21:02:06.023Z,9.50
2023-05-11T21:04:33.824Z,8.82
2023-05-11T21:07:01.174Z,9.55
2023-05-11T21:09:28.499Z,8.35
2023-05-11T21:11:55.774Z,10.32
2023-05-11T21:14:23.052Z,11.30
2023-05-11T21:16:50.286Z,11.55
2023-05-11T21:19:20.712Z,10.98
2023-05-11T21:21:49.604Z,12.27
2023-05-11T21:24:17.010Z,14.55
2023-05-11T21:26:47.982Z,13.45
2023-05-11T21:29:15.452Z,14.25
2023-05-11T21:31:42.576Z,12.55
2023-05-11T21:34:09.824Z,12.60
2023-05-11T21:36:38.939Z,13.45
2023-05-11T21:39:06.188Z,16.35
2023-05-11T21:41:33.311Z,15.55
2023-05-11T21:44:00.541Z,12.93
2023-05-11T21:46:27.732Z,12.73
2023-05-11T21:48:54.987Z,12.13
2023-05-11T21:51:22.111Z,12.80
2023-05-11T21:53:49.345Z,15.00
2023-05-11T21:56:16.473Z,14.00
2023-05-11T21:58:43.628Z,14.40
2023-05-11T22:01:10.711Z,13.35
2023-05-11T22:03:38.121Z,13.93
2023-05-11T22:06:06.579Z,15.68
2023-05-11T22:08:33.701Z,12.63
2023-05-11T22:11:00.858Z,16.08
2023-05-11T22:13:31.141Z,12.52
2023-05-11T22:15:58.239Z,15.35
2023-05-11T22:18:25.567Z,12.18
2023-05-11T22:20:52.695Z,13.40
2023-05-11T22:23:19.946Z,12.95
2023-05-11T22:25:47.141Z,12.73
2023-05-11T22:28:14.233Z,14.18
2023-05-11T22:30:41.400Z,16.05
2023-05-11T22:33:08.618Z,13.15
2023-05-11T22:35:35.840Z,11.90
2023-05-11T22:38:04.384Z,13.40
2023-05-11T22:40:31.625Z,14.45
2023-05-11T22:42:58.800Z,13.27
2023-05-11T22:45:26.076Z,17.45
2023-05-11T22:47:55.888Z,15.85
2023-05-11T22:50:23.152Z,11.70
2023-05-11T22:52:50.351Z,14.35
2023-05-11T22:55:17.632Z,17.30
2023-05-11T22:57:44.805Z,13.35
2023-05-11T23:00:12.568Z,13.00
2023-05-11T23:02:40.248Z,14.10
2023-05-11T23:05:08.081Z,15.45
2023-05-11T23:07:35.899Z,13.05
2023-05-11T23:10:03.094Z,13.55
2023-05-11T23:12:33.080Z,17.05
2023-05-11T23:15:00.305Z,13.13
2023-05-11T23:17:30.881Z,12.63
2023-05-11T23:19:57.971Z,13.18
2023-05-11T23:22:25.273Z,11.73
2023-05-11T23:24:54.940Z,12.40
2023-05-11T23:27:22.195Z,16.77
2023-05-11T23:29:49.328Z,13.77
2023-05-11T23:32:16.452Z,14.23
2023-05-11T23:34:43.884Z,13.98
2023-05-11T23:37:11.290Z,11.77
2023-05-11T23:39:39.349Z,15.60
2023-05-11T23:42:08.763Z,12.98
2023-05-11T23:44:36.220Z,16.17
2023-05-11T23:47:03.402Z,15.10
2023-05-11T23:49:30.548Z,13.13
2023-05-11T23:51:57.658Z,15.27
2023-05-11T23:54:24.764Z,13.50
2023-05-11T23:56:52.008Z,15.07
2023-05-11T23:59:19.276Z,11.80
